CYYB

North Bay Airport

North Bay, , Canada
METAR CYYB 140000Z 10004KT 6SM BR OVC004 M07/M07 A3022 RMK SF8 SLP263
Observed Flight Rules
Dec-14 @ 00:00 UTC (44 minutes ago) Instrument Flight Rules
Wind Visibility Clouds Conditions
100° at 4 knots 6 miles
  • Overcast at 400' AGL
  • Mist
Temperatures Readings
Current -7°C / 19°F
Dewpoint -7°C / 19°F
Humidity 100%
Altimeter 30.22" Hg
Pressure 1026.3 hPa
Elevation 371
METAR CYYB 140000Z 10004KT 6SM BR OVC004 M07/M07 A3022 RMK SF8 SLP263
Observed Flight Rules
Dec-14 @ 00:00 UTC
(44 minutes ago)
LIFR
Wind Visibility
100° at 4 knots 6 miles
Clouds
  • Overcast at 400' AGL
Conditions
  • Mist
Temperature Dewpoint
-7°C / 19°F -7°C / 19°F
Humidity Altimeter Pressure
100% 30.22" Hg 1026.3 hPa